Observations for BELFAST ALDERGROVE, United Kingdom (EGAA)

EGAA 180520Z 24009KT 9999 FEW017 SCT022 BKN029 11/09 Q1013  
EGAA 180450Z 23009KT 9999 BKN019 BKN027 11/09 Q1013 
EGAA 180420Z 24010KT 9999 BKN019 BKN025 12/08 Q1013 
EGAA 180350Z 25012KT 9999 FEW024 BKN036 11/08 Q1013 
EGAA 180320Z AUTO 25012KT 9999 FEW025/// BKN034/// 11/08 Q1012  
EGAA 180250Z AUTO 25015KT 9999 OVC032/// 12/08 Q1012
EGAA 180220Z 24013KT 9999 FEW027 OVC032 12/08 Q1012 
EGAA 180150Z 25011KT 9999 FEW021 BKN030 12/09 Q1012 
EGAA 180120Z 27014KT 9999 SCT020 BKN025 12/09 Q1012 
EGAA 180050Z 26014KT 9999 BKN030 12/09 Q1012
EGAA 180020Z 24010KT 9999 FEW018 SCT026 BKN035 12/10 Q1012  
EGAA 172350Z 26012KT 9999 FEW020 BKN035 12/10 Q1012 
EGAA 172320Z 25009KT 9999 BKN031 13/10 Q1012
EGAA 172250Z 27014KT 9999 FEW013 SCT025 BKN032 12/11 Q1012  
EGAA 172220Z 27013KT 9999 -RA FEW008 SCT013 BKN023 13/11 Q1012  
EGAA 172150Z 25012KT 9999 FEW011 SCT016 BKN030 13/12 Q1011  
EGAA 172120Z 25011KT 9999 FEW007 SCT016 BKN024 13/12 Q1011  
EGAA 172050Z 27013KT 9999 -RADZ BKN012 BKN022 14/13 Q1010   
EGAA 172020Z 28009KT 9999 BKN016 BKN028 15/13 Q1010 
EGAA 171950Z 25008KT 9999 BKN019 BKN025 BKN032 15/13 Q1010  
EGAA 171920Z 27010KT 9999 FEW011 SCT015 BKN030 14/13 Q1009  
EGAA 171850Z 26008KT 9999 SCT017 BKN022 15/13 Q1009 
EGAA 171820Z 25011KT 9999 FEW015 SCT019 BKN028 15/13 Q1009  
EGAA 171750Z 26012KT 9999 FEW020 SCT026 BKN031 15/13 Q1009  
EGAA 171720Z 27015KT 9999 SCT013 BKN024 16/14 Q1009 
EGAA 171650Z 25012KT 9999 SCT003 BKN016 BKN025 15/14 Q1008 RERA 
EGAA 171620Z 24015KT 3600 -RADZ BR SCT003 BKN011 BKN016 16/15 Q1008 
EGAA 171550Z 21008KT 9999 SCT005 SCT011 BKN030 17/15 Q1008  
EGAA 171520Z 21009KT 9999 -DZ SCT010 SCT033 17/15 Q1008 
EGAA 171450Z 20008KT 160V230 9999 SCT009 BKN014 16/14 Q1007 
EGAA 171420Z 20009KT 9999 SCT010 BKN014 15/14 Q1007 
EGAA 171350Z 19008KT 9999 SCT008 BKN012 15/13 Q1008 
EGAA 171320Z 17008KT 120V200 7000 FEW007 SCT011 BKN015 14/13 Q1008 REDZ 
EGAA 171250Z 18009G19KT 140V210 8000 -RA BKN015 14/12 Q1008 RERA
EGAA 171220Z 18009KT 140V210 9999 BKN016 14/11 Q1008
EGAA 171150Z 17010KT 140V200 9999 BKN016 14/11 Q1008
EGAA 171120Z 17011KT 9999 BKN014 14/11 Q1008
EGAA 171050Z 17008KT 140V200 9999 -SHRA BKN015 13/10 Q1008  
EGAA 171020Z 17009KT 130V200 9999 SCT014 BKN019 13/10 Q1009 
EGAA 170950Z 17008KT 140V200 9999 -RA SCT015 BKN020 13/10 Q1009 
EGAA 170920Z 19006KT 160V240 9999 BKN016 13/10 Q1009
EGAA 170850Z 18008KT 140V210 9999 SCT015 BKN019 13/10 Q1009 
EGAA 170820Z 19006KT 160V220 9999 -RA SCT013 BKN017 13/10 Q1010 
EGAA 170750Z 20006KT 170V240 9999 SCT013 BKN018 12/10 Q1010 
EGAA 170720Z 19006KT 160V230 9999 FEW011 SCT016 BKN021 12/10 Q1010  
EGAA 170650Z 20006KT 170V230 9999 -RA BKN008 11/10 Q1010
EGAA 170620Z 20006KT 160V240 9999 -RA SCT007 BKN011 12/10 Q1010 
EGAA 170550Z 22007KT 190V250 9999 -SHRA SCT010 BKN015 12/10 Q1010   
EGAA 170520Z 22007KT 9999 SCT009 BKN015 BKN021 11/10 Q1010  
EGAA 170450Z 22009KT 9999 SCT010 BKN014 BKN019 11/10 Q1010